sensor_id;sensor_type;location;lat;lon;timestamp;pressure;altitude;pressure_sealevel;temperature;humidity
10366;BME280;5229;41.820;23.490;2023-01-26T00:01:13;90132.88;;;4.77;61.33
10366;BME280;5229;41.820;23.490;2023-01-26T00:03:41;90134.19;;;4.74;61.32
10366;BME280;5229;41.820;23.490;2023-01-26T00:06:09;90132.66;;;4.73;61.62
10366;BME280;5229;41.820;23.490;2023-01-26T00:08:37;90128.56;;;4.72;61.49
10366;BME280;5229;41.820;23.490;2023-01-26T00:11:05;90125.22;;;4.72;61.50
10366;BME280;5229;41.820;23.490;2023-01-26T00:13:32;90124.44;;;4.71;61.74
10366;BME280;5229;41.820;23.490;2023-01-26T00:16:01;90125.22;;;4.72;61.43
10366;BME280;5229;41.820;23.490;2023-01-26T00:18:29;90123.44;;;4.72;61.34
10366;BME280;5229;41.820;23.490;2023-01-26T00:20:56;90130.09;;;4.73;61.35
10366;BME280;5229;41.820;23.490;2023-01-26T00:23:23;90124.44;;;4.71;61.50
10366;BME280;5229;41.820;23.490;2023-01-26T00:25:50;90120.88;;;4.72;61.39
10366;BME280;5229;41.820;23.490;2023-01-26T00:28:17;90118.00;;;4.74;61.65
10366;BME280;5229;41.820;23.490;2023-01-26T00:30:44;90112.59;;;4.75;61.26
10366;BME280;5229;41.820;23.490;2023-01-26T00:33:12;90113.66;;;4.74;61.49
10366;BME280;5229;41.820;23.490;2023-01-26T00:35:39;90116.22;;;4.74;61.29
10366;BME280;5229;41.820;23.490;2023-01-26T00:38:08;90106.97;;;4.73;61.63
10366;BME280;5229;41.820;23.490;2023-01-26T00:40:35;90110.59;;;4.72;61.21
10366;BME280;5229;41.820;23.490;2023-01-26T00:43:02;90103.91;;;4.71;61.31
10366;BME280;5229;41.820;23.490;2023-01-26T00:45:29;90107.50;;;4.70;61.60
10366;BME280;5229;41.820;23.490;2023-01-26T00:47:55;90100.06;;;4.69;61.05
10366;BME280;5229;41.820;23.490;2023-01-26T00:50:24;90105.72;;;4.71;61.59
10366;BME280;5229;41.820;23.490;2023-01-26T00:52:51;90106.25;;;4.68;61.26
10366;BME280;5229;41.820;23.490;2023-01-26T00:55:18;90106.50;;;4.66;61.23
10366;BME280;5229;41.820;23.490;2023-01-26T00:57:45;90118.84;;;4.64;60.99
10366;BME280;5229;41.820;23.490;2023-01-26T01:00:12;90107.56;;;4.65;61.47
10366;BME280;5229;41.820;23.490;2023-01-26T01:02:41;90113.22;;;4.62;61.69
10366;BME280;5229;41.820;23.490;2023-01-26T01:05:08;90109.59;;;4.63;61.18
10366;BME280;5229;41.820;23.490;2023-01-26T01:07:36;90103.44;;;4.64;61.02
10366;BME280;5229;41.820;23.490;2023-01-26T01:10:03;90105.50;;;4.62;61.17
10366;BME280;5229;41.820;23.490;2023-01-26T01:12:30;90102.44;;;4.60;60.75
10366;BME280;5229;41.820;23.490;2023-01-26T01:14:57;90107.34;;;4.57;61.10
10366;BME280;5229;41.820;23.490;2023-01-26T01:17:24;90097.81;;;4.57;61.15
10366;BME280;5229;41.820;23.490;2023-01-26T01:19:51;90101.94;;;4.58;61.20
10366;BME280;5229;41.820;23.490;2023-01-26T01:22:18;90094.72;;;4.60;61.03
10366;BME280;5229;41.820;23.490;2023-01-26T01:24:46;90092.94;;;4.61;60.94
10366;BME280;5229;41.820;23.490;2023-01-26T01:27:13;90096.00;;;4.63;61.04
10366;BME280;5229;41.820;23.490;2023-01-26T01:29:39;90098.28;;;4.64;60.94
10366;BME280;5229;41.820;23.490;2023-01-26T01:32:06;90092.66;;;4.62;60.68
10366;BME280;5229;41.820;23.490;2023-01-26T01:34:33;90096.75;;;4.63;60.85
10366;BME280;5229;41.820;23.490;2023-01-26T01:36:59;90092.69;;;4.57;60.93
10366;BME280;5229;41.820;23.490;2023-01-26T01:39:26;90087.06;;;4.55;60.83
10366;BME280;5229;41.820;23.490;2023-01-26T01:41:54;90081.94;;;4.55;60.84
10366;BME280;5229;41.820;23.490;2023-01-26T01:44:23;90087.06;;;4.55;60.74
10366;BME280;5229;41.820;23.490;2023-01-26T01:46:52;90077.81;;;4.54;60.88
10366;BME280;5229;41.820;23.490;2023-01-26T01:49:21;90074.22;;;4.55;60.87
10366;BME280;5229;41.820;23.490;2023-01-26T01:51:53;90070.63;;;4.56;61.15
10366;BME280;5229;41.820;23.490;2023-01-26T01:54:24;90075.25;;;4.54;61.04
10366;BME280;5229;41.820;23.490;2023-01-26T01:56:57;90073.72;;;4.53;61.11
10366;BME280;5229;41.820;23.490;2023-01-26T01:59:26;90070.66;;;4.51;61.25
10366;BME280;5229;41.820;23.490;2023-01-26T02:01:54;90066.53;;;4.50;61.32
10366;BME280;5229;41.820;23.490;2023-01-26T02:04:23;90066.81;;;4.49;61.65
10366;BME280;5229;41.820;23.490;2023-01-26T02:06:51;90063.50;;;4.48;61.22
10366;BME280;5229;41.820;23.490;2023-01-26T02:09:22;90061.41;;;4.50;61.53
10366;BME280;5229;41.820;23.490;2023-01-26T02:12:12;90055.00;;;4.48;61.57
10366;BME280;5229;41.820;23.490;2023-01-26T02:14:40;90059.88;;;4.49;61.83
10366;BME280;5229;41.820;23.490;2023-01-26T02:17:08;90046.78;;;4.51;61.78
10366;BME280;5229;41.820;23.490;2023-01-26T02:19:42;90053.44;;;4.52;61.59
10366;BME280;5229;41.820;23.490;2023-01-26T02:22:31;90050.13;;;4.51;61.66
10366;BME280;5229;41.820;23.490;2023-01-26T02:25:03;90047.78;;;4.55;61.76
10366;BME280;5229;41.820;23.490;2023-01-26T02:27:33;90041.13;;;4.54;61.80
10366;BME280;5229;41.820;23.490;2023-01-26T02:30:00;90047.00;;;4.54;61.88
10366;BME280;5229;41.820;23.490;2023-01-26T02:32:28;90035.22;;;4.53;62.02
10366;BME280;5229;41.820;23.490;2023-01-26T02:34:55;90032.16;;;4.51;62.29
10366;BME280;5229;41.820;23.490;2023-01-26T02:37:23;90029.59;;;4.51;61.92
10366;BME280;5229;41.820;23.490;2023-01-26T02:39:55;90019.31;;;4.51;62.19
10366;BME280;5229;41.820;23.490;2023-01-26T02:42:24;90018.53;;;4.51;62.47
10366;BME280;5229;41.820;23.490;2023-01-26T02:45:09;90016.25;;;4.49;62.23
10366;BME280;5229;41.820;23.490;2023-01-26T02:47:36;90010.59;;;4.47;62.26
10366;BME280;5229;41.820;23.490;2023-01-26T02:50:05;90008.03;;;4.47;62.08
10366;BME280;5229;41.820;23.490;2023-01-26T02:52:31;90006.03;;;4.44;62.31
10366;BME280;5229;41.820;23.490;2023-01-26T02:54:58;90008.59;;;4.44;62.52
10366;BME280;5229;41.820;23.490;2023-01-26T02:57:42;90006.28;;;4.43;62.56
10366;BME280;5229;41.820;23.490;2023-01-26T03:00:13;90000.63;;;4.46;62.55
10366;BME280;5229;41.820;23.490;2023-01-26T03:02:40;89994.44;;;4.47;62.91
10366;BME280;5229;41.820;23.490;2023-01-26T03:05:07;89994.44;;;4.47;62.76
10366;BME280;5229;41.820;23.490;2023-01-26T03:07:34;89988.53;;;4.46;62.52
10366;BME280;5229;41.820;23.490;2023-01-26T03:10:02;89986.22;;;4.45;62.58
10366;BME280;5229;41.820;23.490;2023-01-26T03:12:29;89987.00;;;4.45;62.41
10366;BME280;5229;41.820;23.490;2023-01-26T03:14:55;89983.19;;;4.43;62.58
10366;BME280;5229;41.820;23.490;2023-01-26T03:17:41;89980.09;;;4.41;62.87
10366;BME280;5229;41.820;23.490;2023-01-26T03:20:09;89976.28;;;4.38;62.95
10366;BME280;5229;41.820;23.490;2023-01-26T03:22:53;89973.19;;;4.36;62.81
10366;BME280;5229;41.820;23.490;2023-01-26T03:25:35;89969.09;;;4.35;63.28
10366;BME280;5229;41.820;23.490;2023-01-26T03:28:19;89966.81;;;4.34;63.08
10366;BME280;5229;41.820;23.490;2023-01-26T03:30:46;89961.41;;;4.35;63.13
10366;BME280;5229;41.820;23.490;2023-01-26T03:33:15;89970.16;;;4.34;63.63
10366;BME280;5229;41.820;23.490;2023-01-26T03:35:42;89961.19;;;4.32;63.19
10366;BME280;5229;41.820;23.490;2023-01-26T03:38:09;89961.94;;;4.32;63.30
10366;BME280;5229;41.820;23.490;2023-01-26T03:40:35;89957.34;;;4.29;63.28
10366;BME280;5229;41.820;23.490;2023-01-26T03:43:20;89950.69;;;4.28;63.49
10366;BME280;5229;41.820;23.490;2023-01-26T03:46:05;89957.34;;;4.29;63.67
10366;BME280;5229;41.820;23.490;2023-01-26T03:48:51;89949.63;;;4.29;63.25
10366;BME280;5229;41.820;23.490;2023-01-26T03:51:35;89949.91;;;4.28;63.23
10366;BME280;5229;41.820;23.490;2023-01-26T03:54:19;89945.34;;;4.25;63.19
10366;BME280;5229;41.820;23.490;2023-01-26T03:57:03;89944.56;;;4.24;63.13
10366;BME280;5229;41.820;23.490;2023-01-26T03:59:30;89925.34;;;4.22;63.50
10366;BME280;5229;41.820;23.490;2023-01-26T04:02:03;89941.00;;;4.20;63.73
10366;BME280;5229;41.820;23.490;2023-01-26T04:04:50;89922.53;;;4.18;63.27
10366;BME280;5229;41.820;23.490;2023-01-26T04:07:35;89931.47;;;4.21;63.30
10366;BME280;5229;41.820;23.490;2023-01-26T04:10:19;89931.00;;;4.19;63.49
10366;BME280;5229;41.820;23.490;2023-01-26T04:12:46;89921.50;;;4.19;63.46
10366;BME280;5229;41.820;23.490;2023-01-26T04:15:31;89917.38;;;4.18;63.18
10366;BME280;5229;41.820;23.490;2023-01-26T04:18:15;89920.50;;;4.15;63.30
10366;BME280;5229;41.820;23.490;2023-01-26T04:21:03;89920.00;;;4.13;62.77
10366;BME280;5229;41.820;23.490;2023-01-26T04:23:47;89915.41;;;4.10;63.18
10366;BME280;5229;41.820;23.490;2023-01-26T04:26:14;89918.75;;;4.11;63.38
10366;BME280;5229;41.820;23.490;2023-01-26T04:28:41;89911.84;;;4.06;63.70
10366;BME280;5229;41.820;23.490;2023-01-26T04:31:08;89910.59;;;4.04;63.53
10366;BME280;5229;41.820;23.490;2023-01-26T04:33:34;89912.38;;;4.03;63.38
10366;BME280;5229;41.820;23.490;2023-01-26T04:36:04;89905.72;;;4.02;63.68
10366;BME280;5229;41.820;23.490;2023-01-26T04:38:31;89892.91;;;4.02;63.59
10366;BME280;5229;41.820;23.490;2023-01-26T04:40:58;89903.63;;;4.04;63.60
10366;BME280;5229;41.820;23.490;2023-01-26T04:43:25;89902.63;;;4.05;63.42
10366;BME280;5229;41.820;23.490;2023-01-26T04:45:58;89898.50;;;4.04;63.29
10366;BME280;5229;41.820;23.490;2023-01-26T04:48:26;89901.06;;;4.04;63.38
10366;BME280;5229;41.820;23.490;2023-01-26T04:50:54;89900.06;;;4.05;63.40
10366;BME280;5229;41.820;23.490;2023-01-26T04:53:22;89896.97;;;4.03;63.21
10366;BME280;5229;41.820;23.490;2023-01-26T04:55:49;89901.06;;;4.04;63.30
10366;BME280;5229;41.820;23.490;2023-01-26T04:58:17;89905.19;;;4.05;63.18
10366;BME280;5229;41.820;23.490;2023-01-26T05:00:44;89901.59;;;4.01;63.39
10366;BME280;5229;41.820;23.490;2023-01-26T05:03:10;89905.72;;;4.02;63.78
10366;BME280;5229;41.820;23.490;2023-01-26T05:05:38;89902.91;;;3.99;nan
10366;BME280;5229;41.820;23.490;2023-01-26T05:08:05;89899.34;;;3.95;63.50
10366;BME280;5229;41.820;23.490;2023-01-26T05:10:33;89896.50;;;3.96;63.54
10366;BME280;5229;41.820;23.490;2023-01-26T05:13:00;89906.78;;;3.96;63.72
10366;BME280;5229;41.820;23.490;2023-01-26T05:15:27;89904.22;;;3.96;63.47
10366;BME280;5229;41.820;23.490;2023-01-26T05:17:56;89894.47;;;3.98;63.50
10366;BME280;5229;41.820;23.490;2023-01-26T05:20:23;89895.75;;;3.96;63.79
10366;BME280;5229;41.820;23.490;2023-01-26T05:22:50;89898.56;;;3.94;63.46
10366;BME280;5229;41.820;23.490;2023-01-26T05:25:17;89891.16;;;3.93;63.69
10366;BME280;5229;41.820;23.490;2023-01-26T05:27:45;89897.03;;;3.93;63.37
10366;BME280;5229;41.820;23.490;2023-01-26T05:30:13;89894.00;;;3.91;63.48
10366;BME280;5229;41.820;23.490;2023-01-26T05:32:40;89890.41;;;3.87;63.37
10366;BME280;5229;41.820;23.490;2023-01-26T05:35:07;89904.00;;;3.88;63.62
10366;BME280;5229;41.820;23.490;2023-01-26T05:37:34;89896.56;;;3.86;63.66
10366;BME280;5229;41.820;23.490;2023-01-26T05:40:01;89901.22;;;3.84;63.67
10366;BME280;5229;41.820;23.490;2023-01-26T05:42:29;89899.66;;;3.83;63.87
10366;BME280;5229;41.820;23.490;2023-01-26T05:44:57;89895.56;;;3.82;63.64
10366;BME280;5229;41.820;23.490;2023-01-26T05:47:24;89906.88;;;3.81;64.13
10366;BME280;5229;41.820;23.490;2023-01-26T05:49:50;89898.91;;;3.83;63.74
10366;BME280;5229;41.820;23.490;2023-01-26T05:52:19;89891.97;;;3.83;63.58
10366;BME280;5229;41.820;23.490;2023-01-26T05:54:46;89908.91;;;3.84;63.64
10366;BME280;5229;41.820;23.490;2023-01-26T05:57:13;89901.47;;;3.83;64.21
10366;BME280;5229;41.820;23.490;2023-01-26T05:59:41;89906.34;;;3.84;63.83
10366;BME280;5229;41.820;23.490;2023-01-26T06:02:10;89904.28;;;3.86;63.84
10366;BME280;5229;41.820;23.490;2023-01-26T06:04:37;89905.78;;;3.87;63.42
10366;BME280;5229;41.820;23.490;2023-01-26T06:07:04;89901.44;;;3.88;63.26
10366;BME280;5229;41.820;23.490;2023-01-26T06:09:31;89899.66;;;3.88;63.34
10366;BME280;5229;41.820;23.490;2023-01-26T06:11:57;89898.63;;;3.89;63.40
10366;BME280;5229;41.820;23.490;2023-01-26T06:14:24;89901.19;;;3.89;63.32
10366;BME280;5229;41.820;23.490;2023-01-26T06:16:51;89900.13;;;3.90;63.47
10366;BME280;5229;41.820;23.490;2023-01-26T06:19:20;89899.66;;;3.88;63.47
10366;BME280;5229;41.820;23.490;2023-01-26T06:21:47;89902.22;;;3.88;63.65
10366;BME280;5229;41.820;23.490;2023-01-26T06:24:14;89892.72;;;3.89;63.93
10366;BME280;5229;41.820;23.490;2023-01-26T06:26:40;89897.31;;;3.92;63.49
10366;BME280;5229;41.820;23.490;2023-01-26T06:29:08;89890.41;;;3.92;63.60
10366;BME280;5229;41.820;23.490;2023-01-26T06:31:35;89891.16;;;3.93;63.18
10366;BME280;5229;41.820;23.490;2023-01-26T06:34:02;89891.38;;;3.96;63.21
10366;BME280;5229;41.820;23.490;2023-01-26T06:36:31;89885.72;;;3.99;63.09
10366;BME280;5229;41.820;23.490;2023-01-26T06:38:58;89885.72;;;3.99;63.25
10366;BME280;5229;41.820;23.490;2023-01-26T06:41:25;89872.91;;;3.99;63.09
10366;BME280;5229;41.820;23.490;2023-01-26T06:43:52;89881.09;;;4.01;63.05
10366;BME280;5229;41.820;23.490;2023-01-26T06:46:19;89887.75;;;4.02;63.23
10366;BME280;5229;41.820;23.490;2023-01-26T06:48:45;89890.53;;;4.06;63.33
10366;BME280;5229;41.820;23.490;2023-01-26T06:51:39;89885.16;;;4.07;62.95
10366;BME280;5229;41.820;23.490;2023-01-26T06:54:09;89879.50;;;4.10;63.19
10366;BME280;5229;41.820;23.490;2023-01-26T06:56:36;89879.22;;;4.12;63.39
10366;BME280;5229;41.820;23.490;2023-01-26T06:59:04;89875.13;;;4.11;63.10
10366;BME280;5229;41.820;23.490;2023-01-26T07:01:34;89876.13;;;4.15;63.13
10366;BME280;5229;41.820;23.490;2023-01-26T07:04:01;89881.47;;;4.18;62.93
10366;BME280;5229;41.820;23.490;2023-01-26T07:06:28;89870.94;;;4.20;62.87
10366;BME280;5229;41.820;23.490;2023-01-26T07:08:56;89870.69;;;4.21;62.16
10366;BME280;5229;41.820;23.490;2023-01-26T07:11:23;89870.69;;;4.21;63.32
10366;BME280;5229;41.820;23.490;2023-01-26T07:13:50;89873.75;;;4.23;62.91
10366;BME280;5229;41.820;23.490;2023-01-26T07:16:17;89876.81;;;4.25;62.79
10366;BME280;5229;41.820;23.490;2023-01-26T07:18:44;89874.75;;;4.27;62.61
10366;BME280;5229;41.820;23.490;2023-01-26T07:21:12;89868.81;;;4.32;62.71
10366;BME280;5229;41.820;23.490;2023-01-26T07:23:39;89873.38;;;4.35;62.61
10366;BME280;5229;41.820;23.490;2023-01-26T07:26:08;89856.69;;;4.37;62.80
10366;BME280;5229;41.820;23.490;2023-01-26T07:28:35;89867.44;;;4.39;62.71
10366;BME280;5229;41.820;23.490;2023-01-26T07:31:03;89863.31;;;4.43;62.67
10366;BME280;5229;41.820;23.490;2023-01-26T07:33:30;89865.88;;;4.43;62.36
10366;BME280;5229;41.820;23.490;2023-01-26T07:35:58;89868.94;;;4.45;62.14
10366;BME280;5229;41.820;23.490;2023-01-26T07:38:25;89864.59;;;4.46;62.37
10366;BME280;5229;41.820;23.490;2023-01-26T07:40:52;89871.72;;;4.49;62.38
10366;BME280;5229;41.820;23.490;2023-01-26T07:43:20;89878.13;;;4.51;61.96
10366;BME280;5229;41.820;23.490;2023-01-26T07:45:48;89871.69;;;4.54;62.51
10366;BME280;5229;41.820;23.490;2023-01-26T07:48:15;89863.72;;;4.55;62.42
10366;BME280;5229;41.820;23.490;2023-01-26T07:50:43;89854.97;;;4.56;62.22
10366;BME280;5229;41.820;23.490;2023-01-26T07:53:11;89855.19;;;4.60;62.04
10366;BME280;5229;41.820;23.490;2023-01-26T07:55:39;89853.91;;;4.62;62.14
10366;BME280;5229;41.820;23.490;2023-01-26T07:58:08;89857.00;;;4.59;62.21
10366;BME280;5229;41.820;23.490;2023-01-26T08:00:36;89847.78;;;4.58;62.57
10366;BME280;5229;41.820;23.490;2023-01-26T08:03:04;89843.19;;;4.55;62.21
10366;BME280;5229;41.820;23.490;2023-01-26T08:05:31;89848.59;;;4.54;62.46
10366;BME280;5229;41.820;23.490;2023-01-26T08:08:00;89840.66;;;4.50;62.45
10366;BME280;5229;41.820;23.490;2023-01-26T08:10:27;89847.09;;;4.48;62.59
10366;BME280;5229;41.820;23.490;2023-01-26T08:12:56;89845.34;;;4.43;62.73
10366;BME280;5229;41.820;23.490;2023-01-26T08:15:24;89840.75;;;4.40;62.72
10366;BME280;5229;41.820;23.490;2023-01-26T08:17:53;89842.84;;;4.38;62.61
10366;BME280;5229;41.820;23.490;2023-01-26T08:20:20;89847.44;;;4.36;62.84
10366;BME280;5229;41.820;23.490;2023-01-26T08:22:47;89848.28;;;4.32;62.75
10366;BME280;5229;41.820;23.490;2023-01-26T08:25:14;89849.56;;;4.29;62.97
10366;BME280;5229;41.820;23.490;2023-01-26T08:27:41;89853.94;;;4.29;62.92
10366;BME280;5229;41.820;23.490;2023-01-26T08:30:09;89853.19;;;4.28;63.01
10366;BME280;5229;41.820;23.490;2023-01-26T08:32:36;89856.78;;;4.27;63.33
10366;BME280;5229;41.820;23.490;2023-01-26T08:35:05;89862.19;;;4.26;62.84
10366;BME280;5229;41.820;23.490;2023-01-26T08:37:32;89868.09;;;4.26;62.86
10366;BME280;5229;41.820;23.490;2023-01-26T08:39:59;89861.91;;;4.27;62.99
10366;BME280;5229;41.820;23.490;2023-01-26T08:42:26;89859.34;;;4.27;62.92
10366;BME280;5229;41.820;23.490;2023-01-26T08:44:53;89858.03;;;4.30;62.78
10366;BME280;5229;41.820;23.490;2023-01-26T08:47:20;89851.13;;;4.30;62.67
10366;BME280;5229;41.820;23.490;2023-01-26T08:49:47;89854.16;;;4.32;62.69
10366;BME280;5229;41.820;23.490;2023-01-26T08:52:15;89857.50;;;4.33;62.68
10366;BME280;5229;41.820;23.490;2023-01-26T08:54:42;89855.41;;;4.35;62.36
10366;BME280;5229;41.820;23.490;2023-01-26T08:57:08;89853.09;;;4.38;62.39
10366;BME280;5229;41.820;23.490;2023-01-26T08:59:36;89847.16;;;4.43;62.48
10366;BME280;5229;41.820;23.490;2023-01-26T09:02:03;89849.47;;;4.44;62.31
10366;BME280;5229;41.820;23.490;2023-01-26T09:04:30;89846.13;;;4.44;62.06
10366;BME280;5229;41.820;23.490;2023-01-26T09:06:57;89843.28;;;4.45;62.47
10366;BME280;5229;41.820;23.490;2023-01-26T09:09:25;89845.84;;;4.45;62.42
10366;BME280;5229;41.820;23.490;2023-01-26T09:11:54;89843.03;;;4.42;62.11
10366;BME280;5229;41.820;23.490;2023-01-26T09:14:21;89839.47;;;4.43;62.37
10366;BME280;5229;41.820;23.490;2023-01-26T09:16:48;89831.97;;;4.46;62.07
10366;BME280;5229;41.820;23.490;2023-01-26T09:19:15;89838.59;;;4.52;62.03
10366;BME280;5229;41.820;23.490;2023-01-26T09:21:41;89830.09;;;4.57;61.96
10366;BME280;5229;41.820;23.490;2023-01-26T09:24:09;89829.75;;;4.63;61.71
10366;BME280;5229;41.820;23.490;2023-01-26T09:26:37;89821.50;;;4.66;61.55
10366;BME280;5229;41.820;23.490;2023-01-26T09:29:04;89820.97;;;4.69;61.69
10366;BME280;5229;41.820;23.490;2023-01-26T09:31:31;89826.03;;;4.74;61.63
10366;BME280;5229;41.820;23.490;2023-01-26T09:33:58;89824.44;;;4.78;61.52
10366;BME280;5229;41.820;23.490;2023-01-26T09:36:24;89821.34;;;4.81;61.30
10366;BME280;5229;41.820;23.490;2023-01-26T09:38:51;89813.09;;;4.84;61.56
10366;BME280;5229;41.820;23.490;2023-01-26T09:41:32;89815.41;;;4.86;61.21
10366;BME280;5229;41.820;23.490;2023-01-26T09:44:07;89804.31;;;4.90;61.45
10366;BME280;5229;41.820;23.490;2023-01-26T09:46:45;89801.47;;;4.92;61.21
10366;BME280;5229;41.820;23.490;2023-01-26T09:49:19;89803.72;;;4.93;61.11
10366;BME280;5229;41.820;23.490;2023-01-26T09:51:49;89785.97;;;4.97;61.34
10366;BME280;5229;41.820;23.490;2023-01-26T09:54:25;89787.72;;;5.01;60.93
10366;BME280;5229;41.820;23.490;2023-01-26T09:56:59;89785.88;;;5.07;61.25
10366;BME280;5229;41.820;23.490;2023-01-26T09:59:30;89781.19;;;5.09;60.77
10366;BME280;5229;41.820;23.490;2023-01-26T10:02:02;89777.81;;;5.13;60.77
10366;BME280;5229;41.820;23.490;2023-01-26T10:04:32;89762.38;;;5.13;60.88
10366;BME280;5229;41.820;23.490;2023-01-26T10:07:03;89756.16;;;5.19;61.51
10366;BME280;5229;41.820;23.490;2023-01-26T10:09:34;89754.06;;;5.21;60.82
10366;BME280;5229;41.820;23.490;2023-01-26T10:12:04;89748.09;;;5.26;61.46
10366;BME280;5229;41.820;23.490;2023-01-26T10:14:36;89749.56;;;5.32;60.75
10366;BME280;5229;41.820;23.490;2023-01-26T10:17:13;89741.22;;;5.40;60.84
10366;BME280;5229;41.820;23.490;2023-01-26T10:19:43;89725.16;;;5.48;61.37
10366;BME280;5229;41.820;23.490;2023-01-26T10:22:15;89718.06;;;5.58;61.27
10366;BME280;5229;41.820;23.490;2023-01-26T10:24:50;89710.75;;;5.65;60.68
10366;BME280;5229;41.820;23.490;2023-01-26T10:27:17;89706.47;;;5.74;60.54
10366;BME280;5229;41.820;23.490;2023-01-26T10:29:45;89706.91;;;5.81;60.37
10366;BME280;5229;41.820;23.490;2023-01-26T10:32:13;89704.44;;;5.90;60.14
10366;BME280;5229;41.820;23.490;2023-01-26T10:34:40;89694.28;;;5.98;59.85
10366;BME280;5229;41.820;23.490;2023-01-26T10:37:19;89686.50;;;6.03;60.24
10366;BME280;5229;41.820;23.490;2023-01-26T10:39:57;89676.47;;;6.16;60.22
10366;BME280;5229;41.820;23.490;2023-01-26T10:42:27;89681.84;;;6.33;59.25
10366;BME280;5229;41.820;23.490;2023-01-26T10:44:56;89688.50;;;6.47;59.84
10366;BME280;5229;41.820;23.490;2023-01-26T10:47:23;89688.50;;;6.61;59.16
10366;BME280;5229;41.820;23.490;2023-01-26T10:49:50;89678.59;;;6.68;58.80
10366;BME280;5229;41.820;23.490;2023-01-26T10:52:19;89670.47;;;6.74;58.61
10366;BME280;5229;41.820;23.490;2023-01-26T10:54:47;89662.66;;;6.79;58.31
10366;BME280;5229;41.820;23.490;2023-01-26T10:57:21;89650.22;;;6.81;58.30
10366;BME280;5229;41.820;23.490;2023-01-26T10:59:54;89650.06;;;6.78;58.74
10366;BME280;5229;41.820;23.490;2023-01-26T11:02:25;89648.06;;;6.75;58.63
10366;BME280;5229;41.820;23.490;2023-01-26T11:05:18;89643.75;;;6.70;58.51
10366;BME280;5229;41.820;23.490;2023-01-26T11:07:47;89632.78;;;6.65;58.27
10366;BME280;5229;41.820;23.490;2023-01-26T11:10:26;89624.69;;;6.58;58.61
10366;BME280;5229;41.820;23.490;2023-01-26T11:13:12;89628.91;;;6.54;58.18
10366;BME280;5229;41.820;23.490;2023-01-26T11:15:43;89624.50;;;6.54;58.40
10366;BME280;5229;41.820;23.490;2023-01-26T11:18:26;89623.56;;;6.50;58.65
10366;BME280;5229;41.820;23.490;2023-01-26T11:21:00;89620.22;;;6.50;58.75
10366;BME280;5229;41.820;23.490;2023-01-26T11:23:41;89616.41;;;6.47;58.88
10366;BME280;5229;41.820;23.490;2023-01-26T11:29:36;89606.97;;;6.43;58.32
10366;BME280;5229;41.820;23.490;2023-01-26T11:32:15;89597.72;;;6.42;59.02
10366;BME280;5229;41.820;23.490;2023-01-26T11:34:54;89600.28;;;6.42;59.21
10366;BME280;5229;41.820;23.490;2023-01-26T11:37:37;89587.41;;;6.42;58.69
10366;BME280;5229;41.820;23.490;2023-01-26T11:40:17;89591.25;;;6.44;58.93
10366;BME280;5229;41.820;23.490;2023-01-26T11:42:57;89587.78;;;6.49;58.22
10366;BME280;5229;41.820;23.490;2023-01-26T11:45:33;89581.31;;;6.51;58.79
10366;BME280;5229;41.820;23.490;2023-01-26T11:48:11;89579.69;;;6.55;58.42
10366;BME280;5229;41.820;23.490;2023-01-26T11:50:46;89571.97;;;6.55;58.15
10366;BME280;5229;41.820;23.490;2023-01-26T11:53:50;89563.00;;;6.53;58.09
10366;BME280;5229;41.820;23.490;2023-01-26T11:56:33;89562.69;;;6.54;58.33
10366;BME280;5229;41.820;23.490;2023-01-26T11:59:08;89558.59;;;6.53;58.35
10366;BME280;5229;41.820;23.490;2023-01-26T12:01:40;89550.22;;;6.48;58.20
10366;BME280;5229;41.820;23.490;2023-01-26T12:04:13;89547.75;;;6.43;59.20
10366;BME280;5229;41.820;23.490;2023-01-26T12:06:46;89539.84;;;6.39;59.35
10366;BME280;5229;41.820;23.490;2023-01-26T12:09:20;89544.34;;;6.34;58.90
10366;BME280;5229;41.820;23.490;2023-01-26T12:11:52;89544.44;;;6.29;58.92
10366;BME280;5229;41.820;23.490;2023-01-26T12:14:24;89537.88;;;6.23;59.38
10366;BME280;5229;41.820;23.490;2023-01-26T12:17:01;89524.94;;;6.14;59.58
10366;BME280;5229;41.820;23.490;2023-01-26T12:19:39;89532.00;;;6.08;60.77
10366;BME280;5229;41.820;23.490;2023-01-26T12:22:14;89527.13;;;6.07;60.46
10366;BME280;5229;41.820;23.490;2023-01-26T12:24:49;89520.47;;;6.06;59.78
10366;BME280;5229;41.820;23.490;2023-01-26T12:27:22;89515.59;;;6.04;60.21
10366;BME280;5229;41.820;23.490;2023-01-26T12:29:54;89514.66;;;6.00;59.92
10366;BME280;5229;41.820;23.490;2023-01-26T12:32:22;89504.44;;;5.95;60.89
10366;BME280;5229;41.820;23.490;2023-01-26T12:34:50;89504.84;;;5.89;61.14
10366;BME280;5229;41.820;23.490;2023-01-26T12:37:36;89510.38;;;5.82;61.06
10366;BME280;5229;41.820;23.490;2023-01-26T12:40:17;89513.50;;;5.79;60.87
10366;BME280;5229;41.820;23.490;2023-01-26T12:42:53;89511.28;;;5.73;61.46
10366;BME280;5229;41.820;23.490;2023-01-26T12:45:26;89504.47;;;5.68;61.48
10366;BME280;5229;41.820;23.490;2023-01-26T12:48:00;89507.59;;;5.65;60.63
10366;BME280;5229;41.820;23.490;2023-01-26T12:50:34;89505.09;;;5.60;61.19
10366;BME280;5229;41.820;23.490;2023-01-26T12:53:08;89501.59;;;5.56;61.35
10366;BME280;5229;41.820;23.490;2023-01-26T12:55:41;89501.13;;;5.54;61.51
10366;BME280;5229;41.820;23.490;2023-01-26T12:58:12;89494.75;;;5.52;61.43
10366;BME280;5229;41.820;23.490;2023-01-26T13:00:50;89495.13;;;5.45;61.25
10366;BME280;5229;41.820;23.490;2023-01-26T13:03:21;89493.88;;;5.43;61.93
10366;BME280;5229;41.820;23.490;2023-01-26T13:05:55;89495.22;;;5.40;61.77
10366;BME280;5229;41.820;23.490;2023-01-26T13:08:46;89491.97;;;5.35;61.50
10366;BME280;5229;41.820;23.490;2023-01-26T13:11:43;89488.91;;;5.33;62.01
10366;BME280;5229;41.820;23.490;2023-01-26T13:14:29;89486.63;;;5.31;61.82
10366;BME280;5229;41.820;23.490;2023-01-26T13:16:56;89488.16;;;5.32;62.08
10366;BME280;5229;41.820;23.490;2023-01-26T13:19:34;89481.50;;;5.31;61.56
10366;BME280;5229;41.820;23.490;2023-01-26T13:22:01;89491.78;;;5.31;62.28
10366;BME280;5229;41.820;23.490;2023-01-26T13:24:43;89485.13;;;5.30;62.19
10366;BME280;5229;41.820;23.490;2023-01-26T13:27:32;89472.75;;;5.32;62.19
10366;BME280;5229;41.820;23.490;2023-01-26T13:30:00;89469.88;;;5.34;62.22
10366;BME280;5229;41.820;23.490;2023-01-26T13:33:00;89461.22;;;5.30;61.89